sensor_id;sensor_type;location;lat;lon;timestamp;P1;durP1;ratioP1;P2;durP2;ratioP2
48588;SDS011;34369;51.174;6.738;2023-05-20T00:00:11;27.08;;;25.27;;
48588;SDS011;34369;51.174;6.738;2023-05-20T00:02:45;28.23;;;26.33;;
48588;SDS011;34369;51.174;6.738;2023-05-20T00:05:17;27.67;;;25.77;;
48588;SDS011;34369;51.174;6.738;2023-05-20T00:07:50;28.85;;;26.95;;
48588;SDS011;34369;51.174;6.738;2023-05-20T00:10:22;27.27;;;25.45;;
48588;SDS011;34369;51.174;6.738;2023-05-20T00:12:56;27.85;;;26.05;;
48588;SDS011;34369;51.174;6.738;2023-05-20T00:15:28;28.17;;;26.20;;
48588;SDS011;34369;51.174;6.738;2023-05-20T00:18:01;28.05;;;26.15;;
48588;SDS011;34369;51.174;6.738;2023-05-20T00:20:34;27.30;;;25.17;;
48588;SDS011;34369;51.174;6.738;2023-05-20T00:23:06;27.45;;;25.65;;
48588;SDS011;34369;51.174;6.738;2023-05-20T00:25:39;27.73;;;25.83;;
48588;SDS011;34369;51.174;6.738;2023-05-20T00:28:12;27.00;;;25.10;;
48588;SDS011;34369;51.174;6.738;2023-05-20T00:30:45;28.40;;;26.50;;
48588;SDS011;34369;51.174;6.738;2023-05-20T00:33:17;27.85;;;25.95;;
48588;SDS011;34369;51.174;6.738;2023-05-20T00:35:49;29.08;;;27.08;;
48588;SDS011;34369;51.174;6.738;2023-05-20T00:38:22;27.75;;;25.85;;
48588;SDS011;34369;51.174;6.738;2023-05-20T00:40:54;28.15;;;26.25;;
48588;SDS011;34369;51.174;6.738;2023-05-20T00:43:28;28.20;;;26.10;;
48588;SDS011;34369;51.174;6.738;2023-05-20T00:46:00;28.63;;;26.70;;
48588;SDS011;34369;51.174;6.738;2023-05-20T00:48:35;28.02;;;26.15;;
48588;SDS011;34369;51.174;6.738;2023-05-20T00:51:12;28.00;;;26.20;;
48588;SDS011;34369;51.174;6.738;2023-05-20T00:53:45;29.60;;;27.70;;
48588;SDS011;34369;51.174;6.738;2023-05-20T00:56:17;29.85;;;27.85;;
48588;SDS011;34369;51.174;6.738;2023-05-20T00:58:53;30.15;;;27.63;;
48588;SDS011;34369;51.174;6.738;2023-05-20T01:01:26;28.83;;;26.90;;
48588;SDS011;34369;51.174;6.738;2023-05-20T01:03:58;29.48;;;27.50;;
48588;SDS011;34369;51.174;6.738;2023-05-20T01:06:31;28.60;;;26.80;;
48588;SDS011;34369;51.174;6.738;2023-05-20T01:09:03;29.00;;;27.20;;
48588;SDS011;34369;51.174;6.738;2023-05-20T01:11:37;29.00;;;27.10;;
48588;SDS011;34369;51.174;6.738;2023-05-20T01:14:20;29.88;;;27.88;;
48588;SDS011;34369;51.174;6.738;2023-05-20T01:16:54;30.90;;;28.83;;
48588;SDS011;34369;51.174;6.738;2023-05-20T01:19:30;29.92;;;27.83;;
48588;SDS011;34369;51.174;6.738;2023-05-20T01:22:08;29.67;;;27.75;;
48588;SDS011;34369;51.174;6.738;2023-05-20T01:24:45;29.33;;;27.42;;
48588;SDS011;34369;51.174;6.738;2023-05-20T01:27:19;30.17;;;28.27;;
48588;SDS011;34369;51.174;6.738;2023-05-20T01:29:54;29.85;;;27.80;;
48588;SDS011;34369;51.174;6.738;2023-05-20T01:32:27;29.92;;;27.95;;
48588;SDS011;34369;51.174;6.738;2023-05-20T01:35:06;30.23;;;28.15;;
48588;SDS011;34369;51.174;6.738;2023-05-20T01:37:39;30.45;;;28.40;;
48588;SDS011;34369;51.174;6.738;2023-05-20T01:40:16;30.05;;;28.13;;
48588;SDS011;34369;51.174;6.738;2023-05-20T01:42:50;28.83;;;26.92;;
48588;SDS011;34369;51.174;6.738;2023-05-20T01:45:24;30.10;;;28.00;;
48588;SDS011;34369;51.174;6.738;2023-05-20T01:47:56;30.05;;;27.95;;
48588;SDS011;34369;51.174;6.738;2023-05-20T01:50:30;29.20;;;27.30;;
48588;SDS011;34369;51.174;6.738;2023-05-20T01:53:02;30.48;;;28.48;;
48588;SDS011;34369;51.174;6.738;2023-05-20T01:55:36;30.08;;;27.98;;
48588;SDS011;34369;51.174;6.738;2023-05-20T01:58:08;29.98;;;27.83;;
48588;SDS011;34369;51.174;6.738;2023-05-20T02:00:40;28.73;;;26.80;;
48588;SDS011;34369;51.174;6.738;2023-05-20T02:03:13;29.40;;;27.40;;
48588;SDS011;34369;51.174;6.738;2023-05-20T02:05:45;28.63;;;26.70;;
48588;SDS011;34369;51.174;6.738;2023-05-20T02:08:18;29.52;;;27.58;;
48588;SDS011;34369;51.174;6.738;2023-05-20T02:10:51;29.70;;;27.70;;
48588;SDS011;34369;51.174;6.738;2023-05-20T02:13:24;29.08;;;27.17;;
48588;SDS011;34369;51.174;6.738;2023-05-20T02:15:56;29.70;;;27.70;;
48588;SDS011;34369;51.174;6.738;2023-05-20T02:18:29;29.58;;;27.58;;
48588;SDS011;34369;51.174;6.738;2023-05-20T02:21:01;28.98;;;27.08;;
48588;SDS011;34369;51.174;6.738;2023-05-20T02:23:35;29.55;;;27.40;;
48588;SDS011;34369;51.174;6.738;2023-05-20T02:26:09;29.42;;;27.42;;
48588;SDS011;34369;51.174;6.738;2023-05-20T02:28:42;30.50;;;28.30;;
48588;SDS011;34369;51.174;6.738;2023-05-20T02:31:15;29.95;;;27.95;;
48588;SDS011;34369;51.174;6.738;2023-05-20T02:33:47;29.92;;;27.92;;
48588;SDS011;34369;51.174;6.738;2023-05-20T02:36:20;29.15;;;27.15;;
48588;SDS011;34369;51.174;6.738;2023-05-20T02:38:52;29.63;;;27.67;;
48588;SDS011;34369;51.174;6.738;2023-05-20T02:41:27;30.25;;;28.13;;
48588;SDS011;34369;51.174;6.738;2023-05-20T02:43:59;28.65;;;26.67;;
48588;SDS011;34369;51.174;6.738;2023-05-20T02:46:31;29.40;;;27.35;;
48588;SDS011;34369;51.174;6.738;2023-05-20T02:49:04;30.60;;;28.60;;
48588;SDS011;34369;51.174;6.738;2023-05-20T02:51:37;29.77;;;27.73;;
48588;SDS011;34369;51.174;6.738;2023-05-20T02:54:11;30.13;;;28.15;;
48588;SDS011;34369;51.174;6.738;2023-05-20T02:56:46;31.70;;;29.50;;
48588;SDS011;34369;51.174;6.738;2023-05-20T02:59:18;29.02;;;26.92;;
48588;SDS011;34369;51.174;6.738;2023-05-20T03:01:51;29.38;;;27.48;;
48588;SDS011;34369;51.174;6.738;2023-05-20T03:04:23;29.95;;;27.92;;
48588;SDS011;34369;51.174;6.738;2023-05-20T03:06:56;29.17;;;27.27;;
48588;SDS011;34369;51.174;6.738;2023-05-20T03:09:28;30.48;;;28.40;;
48588;SDS011;34369;51.174;6.738;2023-05-20T03:12:03;28.42;;;26.52;;
48588;SDS011;34369;51.174;6.738;2023-05-20T03:14:37;28.52;;;26.63;;
48588;SDS011;34369;51.174;6.738;2023-05-20T03:17:11;28.35;;;26.45;;
48588;SDS011;34369;51.174;6.738;2023-05-20T03:19:49;30.42;;;28.33;;
48588;SDS011;34369;51.174;6.738;2023-05-20T03:22:26;30.13;;;28.02;;
48588;SDS011;34369;51.174;6.738;2023-05-20T03:24:59;31.00;;;28.90;;
48588;SDS011;34369;51.174;6.738;2023-05-20T03:27:34;29.48;;;27.55;;
48588;SDS011;34369;51.174;6.738;2023-05-20T03:30:08;30.98;;;28.88;;
48588;SDS011;34369;51.174;6.738;2023-05-20T03:32:43;31.23;;;29.02;;
48588;SDS011;34369;51.174;6.738;2023-05-20T03:35:22;30.10;;;28.10;;
48588;SDS011;34369;51.174;6.738;2023-05-20T03:37:56;30.35;;;28.35;;
48588;SDS011;34369;51.174;6.738;2023-05-20T03:40:31;29.73;;;27.73;;
48588;SDS011;34369;51.174;6.738;2023-05-20T03:43:05;30.23;;;28.23;;
48588;SDS011;34369;51.174;6.738;2023-05-20T03:45:38;31.15;;;28.95;;
48588;SDS011;34369;51.174;6.738;2023-05-20T03:48:11;30.33;;;28.15;;
48588;SDS011;34369;51.174;6.738;2023-05-20T03:50:44;31.60;;;29.40;;
48588;SDS011;34369;51.174;6.738;2023-05-20T03:53:17;30.00;;;28.00;;
48588;SDS011;34369;51.174;6.738;2023-05-20T03:55:50;31.27;;;29.17;;
48588;SDS011;34369;51.174;6.738;2023-05-20T03:58:36;30.10;;;28.10;;
48588;SDS011;34369;51.174;6.738;2023-05-20T04:01:11;31.40;;;29.40;;
48588;SDS011;34369;51.174;6.738;2023-05-20T04:03:48;30.57;;;28.57;;
48588;SDS011;34369;51.174;6.738;2023-05-20T04:06:24;31.23;;;29.13;;
48588;SDS011;34369;51.174;6.738;2023-05-20T04:08:59;31.00;;;29.00;;
48588;SDS011;34369;51.174;6.738;2023-05-20T04:11:31;30.52;;;28.58;;
48588;SDS011;34369;51.174;6.738;2023-05-20T04:14:05;31.15;;;29.15;;
48588;SDS011;34369;51.174;6.738;2023-05-20T04:16:39;30.77;;;28.77;;
48588;SDS011;34369;51.174;6.738;2023-05-20T04:19:12;31.80;;;29.67;;
48588;SDS011;34369;51.174;6.738;2023-05-20T04:21:45;31.13;;;29.00;;
48588;SDS011;34369;51.174;6.738;2023-05-20T04:24:20;31.75;;;29.65;;
48588;SDS011;34369;51.174;6.738;2023-05-20T04:26:56;30.80;;;28.77;;
48588;SDS011;34369;51.174;6.738;2023-05-20T04:29:33;30.45;;;28.45;;
48588;SDS011;34369;51.174;6.738;2023-05-20T04:32:06;30.45;;;28.45;;
48588;SDS011;34369;51.174;6.738;2023-05-20T04:34:40;30.85;;;28.85;;
48588;SDS011;34369;51.174;6.738;2023-05-20T04:37:14;30.02;;;28.05;;
48588;SDS011;34369;51.174;6.738;2023-05-20T04:39:48;31.20;;;29.02;;
48588;SDS011;34369;51.174;6.738;2023-05-20T04:42:21;30.05;;;28.05;;
48588;SDS011;34369;51.174;6.738;2023-05-20T04:44:57;30.50;;;28.43;;
48588;SDS011;34369;51.174;6.738;2023-05-20T04:47:33;29.73;;;27.73;;
48588;SDS011;34369;51.174;6.738;2023-05-20T04:50:08;29.27;;;27.35;;
48588;SDS011;34369;51.174;6.738;2023-05-20T04:52:42;30.83;;;28.83;;
48588;SDS011;34369;51.174;6.738;2023-05-20T04:55:17;30.98;;;28.88;;
48588;SDS011;34369;51.174;6.738;2023-05-20T04:57:53;29.75;;;27.75;;
48588;SDS011;34369;51.174;6.738;2023-05-20T05:00:34;30.48;;;28.30;;
48588;SDS011;34369;51.174;6.738;2023-05-20T05:03:09;29.42;;;27.42;;
48588;SDS011;34369;51.174;6.738;2023-05-20T05:05:43;30.10;;;28.00;;
48588;SDS011;34369;51.174;6.738;2023-05-20T05:08:16;30.23;;;28.15;;
48588;SDS011;34369;51.174;6.738;2023-05-20T05:10:48;29.15;;;27.05;;
48588;SDS011;34369;51.174;6.738;2023-05-20T05:13:21;30.42;;;28.33;;
48588;SDS011;34369;51.174;6.738;2023-05-20T05:16:00;30.45;;;28.45;;
48588;SDS011;34369;51.174;6.738;2023-05-20T05:18:33;29.20;;;27.30;;
48588;SDS011;34369;51.174;6.738;2023-05-20T05:21:06;29.70;;;27.60;;
48588;SDS011;34369;51.174;6.738;2023-05-20T05:23:39;30.00;;;28.08;;
48588;SDS011;34369;51.174;6.738;2023-05-20T05:26:13;28.52;;;26.52;;
48588;SDS011;34369;51.174;6.738;2023-05-20T05:28:46;29.38;;;27.35;;
48588;SDS011;34369;51.174;6.738;2023-05-20T05:31:21;30.50;;;28.30;;
48588;SDS011;34369;51.174;6.738;2023-05-20T05:33:54;29.25;;;27.35;;
48588;SDS011;34369;51.174;6.738;2023-05-20T05:36:31;29.17;;;27.08;;
48588;SDS011;34369;51.174;6.738;2023-05-20T05:39:05;29.40;;;27.40;;
48588;SDS011;34369;51.174;6.738;2023-05-20T05:41:38;29.63;;;27.63;;
48588;SDS011;34369;51.174;6.738;2023-05-20T05:44:11;29.98;;;27.95;;
48588;SDS011;34369;51.174;6.738;2023-05-20T05:46:49;29.20;;;27.15;;
48588;SDS011;34369;51.174;6.738;2023-05-20T05:49:25;28.90;;;27.00;;
48588;SDS011;34369;51.174;6.738;2023-05-20T05:51:58;27.77;;;25.77;;
48588;SDS011;34369;51.174;6.738;2023-05-20T05:54:31;29.23;;;27.33;;
48588;SDS011;34369;51.174;6.738;2023-05-20T05:57:04;28.90;;;26.85;;
48588;SDS011;34369;51.174;6.738;2023-05-20T05:59:39;29.60;;;27.48;;
48588;SDS011;34369;51.174;6.738;2023-05-20T06:02:14;28.58;;;26.67;;
48588;SDS011;34369;51.174;6.738;2023-05-20T06:04:47;29.02;;;27.02;;
48588;SDS011;34369;51.174;6.738;2023-05-20T06:07:21;28.25;;;26.35;;
48588;SDS011;34369;51.174;6.738;2023-05-20T06:09:59;29.13;;;27.10;;
48588;SDS011;34369;51.174;6.738;2023-05-20T06:12:32;28.33;;;26.42;;
48588;SDS011;34369;51.174;6.738;2023-05-20T06:15:05;29.13;;;27.15;;
48588;SDS011;34369;51.174;6.738;2023-05-20T06:17:44;28.10;;;26.05;;
48588;SDS011;34369;51.174;6.738;2023-05-20T06:20:16;28.25;;;26.33;;
48588;SDS011;34369;51.174;6.738;2023-05-20T06:22:49;28.25;;;26.35;;
48588;SDS011;34369;51.174;6.738;2023-05-20T06:25:22;27.90;;;25.90;;
48588;SDS011;34369;51.174;6.738;2023-05-20T06:27:56;28.23;;;26.33;;
48588;SDS011;34369;51.174;6.738;2023-05-20T06:30:32;28.33;;;26.33;;
48588;SDS011;34369;51.174;6.738;2023-05-20T06:33:08;27.38;;;25.38;;
48588;SDS011;34369;51.174;6.738;2023-05-20T06:35:45;27.70;;;25.80;;
48588;SDS011;34369;51.174;6.738;2023-05-20T06:38:20;28.52;;;26.33;;
48588;SDS011;34369;51.174;6.738;2023-05-20T06:40:54;27.67;;;25.77;;
48588;SDS011;34369;51.174;6.738;2023-05-20T06:43:27;26.63;;;24.83;;
48588;SDS011;34369;51.174;6.738;2023-05-20T06:46:01;27.45;;;25.55;;
48588;SDS011;34369;51.174;6.738;2023-05-20T06:48:36;26.95;;;25.05;;
48588;SDS011;34369;51.174;6.738;2023-05-20T06:51:08;27.52;;;25.73;;
48588;SDS011;34369;51.174;6.738;2023-05-20T06:53:41;26.85;;;24.85;;
48588;SDS011;34369;51.174;6.738;2023-05-20T06:56:25;26.85;;;25.05;;
48588;SDS011;34369;51.174;6.738;2023-05-20T06:59:12;26.30;;;24.33;;
48588;SDS011;34369;51.174;6.738;2023-05-20T07:01:46;26.63;;;24.83;;
48588;SDS011;34369;51.174;6.738;2023-05-20T07:04:20;27.02;;;24.92;;
48588;SDS011;34369;51.174;6.738;2023-05-20T07:06:53;26.88;;;24.90;;
48588;SDS011;34369;51.174;6.738;2023-05-20T07:09:26;26.67;;;24.75;;
48588;SDS011;34369;51.174;6.738;2023-05-20T07:11:59;26.52;;;24.70;;
48588;SDS011;34369;51.174;6.738;2023-05-20T07:14:33;26.83;;;25.02;;
48588;SDS011;34369;51.174;6.738;2023-05-20T07:17:11;26.20;;;24.40;;
48588;SDS011;34369;51.174;6.738;2023-05-20T07:19:46;25.95;;;24.15;;
48588;SDS011;34369;51.174;6.738;2023-05-20T07:22:20;26.55;;;24.75;;
48588;SDS011;34369;51.174;6.738;2023-05-20T07:24:53;25.58;;;23.88;;
48588;SDS011;34369;51.174;6.738;2023-05-20T07:27:25;25.90;;;24.20;;
48588;SDS011;34369;51.174;6.738;2023-05-20T07:30:00;27.10;;;25.20;;
48588;SDS011;34369;51.174;6.738;2023-05-20T07:32:34;26.58;;;24.77;;
48588;SDS011;34369;51.174;6.738;2023-05-20T07:35:09;25.63;;;23.88;;
48588;SDS011;34369;51.174;6.738;2023-05-20T07:37:42;26.38;;;24.48;;
48588;SDS011;34369;51.174;6.738;2023-05-20T07:40:15;26.75;;;24.75;;
48588;SDS011;34369;51.174;6.738;2023-05-20T07:42:50;27.05;;;25.05;;
48588;SDS011;34369;51.174;6.738;2023-05-20T07:45:23;25.90;;;24.02;;
48588;SDS011;34369;51.174;6.738;2023-05-20T07:47:56;25.73;;;23.83;;
48588;SDS011;34369;51.174;6.738;2023-05-20T07:50:30;26.23;;;24.42;;
48588;SDS011;34369;51.174;6.738;2023-05-20T07:53:05;25.63;;;23.73;;
48588;SDS011;34369;51.174;6.738;2023-05-20T07:55:37;26.13;;;24.25;;
48588;SDS011;34369;51.174;6.738;2023-05-20T07:58:10;26.52;;;24.63;;
48588;SDS011;34369;51.174;6.738;2023-05-20T08:00:42;25.15;;;23.42;;
48588;SDS011;34369;51.174;6.738;2023-05-20T08:03:15;25.80;;;24.00;;
48588;SDS011;34369;51.174;6.738;2023-05-20T08:05:50;24.98;;;23.25;;
48588;SDS011;34369;51.174;6.738;2023-05-20T08:08:24;25.20;;;23.20;;
48588;SDS011;34369;51.174;6.738;2023-05-20T08:10:58;25.83;;;23.92;;
48588;SDS011;34369;51.174;6.738;2023-05-20T08:13:33;25.90;;;24.10;;
48588;SDS011;34369;51.174;6.738;2023-05-20T08:16:05;25.67;;;23.77;;
48588;SDS011;34369;51.174;6.738;2023-05-20T08:18:38;24.75;;;22.95;;
48588;SDS011;34369;51.174;6.738;2023-05-20T08:21:12;24.90;;;23.10;;
48588;SDS011;34369;51.174;6.738;2023-05-20T08:23:44;24.60;;;22.85;;
48588;SDS011;34369;51.174;6.738;2023-05-20T08:26:17;25.63;;;23.83;;
48588;SDS011;34369;51.174;6.738;2023-05-20T08:28:50;25.23;;;23.42;;
48588;SDS011;34369;51.174;6.738;2023-05-20T08:31:24;25.00;;;23.20;;
48588;SDS011;34369;51.174;6.738;2023-05-20T08:33:57;24.65;;;22.85;;
48588;SDS011;34369;51.174;6.738;2023-05-20T08:36:32;25.00;;;23.10;;
48588;SDS011;34369;51.174;6.738;2023-05-20T08:39:05;24.80;;;23.00;;
48588;SDS011;34369;51.174;6.738;2023-05-20T08:41:39;24.83;;;22.98;;
48588;SDS011;34369;51.174;6.738;2023-05-20T08:44:12;25.30;;;23.50;;
48588;SDS011;34369;51.174;6.738;2023-05-20T08:46:45;25.25;;;23.40;;
48588;SDS011;34369;51.174;6.738;2023-05-20T08:49:19;24.38;;;22.67;;
48588;SDS011;34369;51.174;6.738;2023-05-20T08:51:54;25.25;;;23.45;;
48588;SDS011;34369;51.174;6.738;2023-05-20T08:54:28;23.98;;;22.27;;
48588;SDS011;34369;51.174;6.738;2023-05-20T08:57:12;24.17;;;22.38;;
48588;SDS011;34369;51.174;6.738;2023-05-20T08:59:45;24.08;;;22.27;;
48588;SDS011;34369;51.174;6.738;2023-05-20T09:02:17;24.80;;;22.83;;
48588;SDS011;34369;51.174;6.738;2023-05-20T09:04:51;24.33;;;22.45;;
48588;SDS011;34369;51.174;6.738;2023-05-20T09:07:28;24.23;;;22.42;;
48588;SDS011;34369;51.174;6.738;2023-05-20T09:10:02;23.77;;;21.98;;
48588;SDS011;34369;51.174;6.738;2023-05-20T09:12:35;24.00;;;22.10;;
48588;SDS011;34369;51.174;6.738;2023-05-20T09:15:09;23.98;;;22.08;;
48588;SDS011;34369;51.174;6.738;2023-05-20T09:17:42;23.88;;;22.10;;
48588;SDS011;34369;51.174;6.738;2023-05-20T09:20:16;22.73;;;21.02;;
48588;SDS011;34369;51.174;6.738;2023-05-20T09:22:51;23.45;;;21.55;;
48588;SDS011;34369;51.174;6.738;2023-05-20T09:25:25;23.27;;;21.25;;
48588;SDS011;34369;51.174;6.738;2023-05-20T09:27:58;23.02;;;21.08;;
48588;SDS011;34369;51.174;6.738;2023-05-20T09:30:32;22.30;;;20.60;;
48588;SDS011;34369;51.174;6.738;2023-05-20T09:33:05;23.48;;;21.48;;
48588;SDS011;34369;51.174;6.738;2023-05-20T09:35:38;22.02;;;20.27;;
48588;SDS011;34369;51.174;6.738;2023-05-20T09:38:14;22.50;;;20.77;;
48588;SDS011;34369;51.174;6.738;2023-05-20T09:40:47;22.73;;;20.92;;
48588;SDS011;34369;51.174;6.738;2023-05-20T09:43:21;23.52;;;21.63;;
48588;SDS011;34369;51.174;6.738;2023-05-20T09:45:54;23.65;;;21.85;;
48588;SDS011;34369;51.174;6.738;2023-05-20T09:48:30;23.02;;;21.27;;
48588;SDS011;34369;51.174;6.738;2023-05-20T09:51:06;23.00;;;21.10;;
48588;SDS011;34369;51.174;6.738;2023-05-20T09:53:42;23.90;;;22.00;;
48588;SDS011;34369;51.174;6.738;2023-05-20T09:56:15;23.15;;;21.45;;
48588;SDS011;34369;51.174;6.738;2023-05-20T09:58:50;24.57;;;22.67;;
48588;SDS011;34369;51.174;6.738;2023-05-20T10:01:27;23.38;;;21.67;;
48588;SDS011;34369;51.174;6.738;2023-05-20T10:04:02;23.40;;;21.70;;
48588;SDS011;34369;51.174;6.738;2023-05-20T10:06:50;24.33;;;22.48;;
48588;SDS011;34369;51.174;6.738;2023-05-20T10:10:05;23.95;;;22.00;;
48588;SDS011;34369;51.174;6.738;2023-05-20T10:12:58;24.98;;;22.42;;
48588;SDS011;34369;51.174;6.738;2023-05-20T10:15:47;24.73;;;22.83;;
48588;SDS011;34369;51.174;6.738;2023-05-20T10:18:34;24.10;;;22.30;;
48588;SDS011;34369;51.174;6.738;2023-05-20T10:21:20;23.50;;;21.77;;
48588;SDS011;34369;51.174;6.738;2023-05-20T10:26:38;23.65;;;21.85;;
48588;SDS011;34369;51.174;6.738;2023-05-20T10:29:15;23.70;;;21.90;;
48588;SDS011;34369;51.174;6.738;2023-05-20T10:31:49;23.25;;;21.38;;
48588;SDS011;34369;51.174;6.738;2023-05-20T10:34:23;23.48;;;21.70;;
48588;SDS011;34369;51.174;6.738;2023-05-20T10:36:58;24.15;;;22.15;;
48588;SDS011;34369;51.174;6.738;2023-05-20T10:39:31;23.80;;;22.00;;
48588;SDS011;34369;51.174;6.738;2023-05-20T10:42:06;23.25;;;21.55;;
48588;SDS011;34369;51.174;6.738;2023-05-20T10:44:42;23.77;;;21.98;;
48588;SDS011;34369;51.174;6.738;2023-05-20T10:47:15;23.13;;;21.42;;
48588;SDS011;34369;51.174;6.738;2023-05-20T10:49:47;24.60;;;22.58;;
48588;SDS011;34369;51.174;6.738;2023-05-20T10:52:20;24.52;;;22.63;;
48588;SDS011;34369;51.174;6.738;2023-05-20T10:54:54;24.38;;;22.48;;
48588;SDS011;34369;51.174;6.738;2023-05-20T10:57:29;24.13;;;22.27;;
48588;SDS011;34369;51.174;6.738;2023-05-20T11:00:03;23.52;;;21.73;;
48588;SDS011;34369;51.174;6.738;2023-05-20T11:02:39;24.15;;;22.35;;
48588;SDS011;34369;51.174;6.738;2023-05-20T11:05:12;24.75;;;22.85;;
48588;SDS011;34369;51.174;6.738;2023-05-20T11:07:47;24.58;;;22.77;;
48588;SDS011;34369;51.174;6.738;2023-05-20T11:10:20;24.45;;;22.65;;
48588;SDS011;34369;51.174;6.738;2023-05-20T11:12:55;23.95;;;22.15;;
48588;SDS011;34369;51.174;6.738;2023-05-20T11:15:30;25.55;;;23.75;;
48588;SDS011;34369;51.174;6.738;2023-05-20T11:18:06;24.33;;;22.52;;
48588;SDS011;34369;51.174;6.738;2023-05-20T11:20:52;24.60;;;22.80;;
48588;SDS011;34369;51.174;6.738;2023-05-20T11:23:54;24.27;;;22.48;;
48588;SDS011;34369;51.174;6.738;2023-05-20T11:27:01;24.67;;;22.88;;
48588;SDS011;34369;51.174;6.738;2023-05-20T11:29:47;24.60;;;22.83;;
48588;SDS011;34369;51.174;6.738;2023-05-20T11:32:23;25.10;;;23.10;;
48588;SDS011;34369;51.174;6.738;2023-05-20T11:34:58;25.02;;;23.13;;
48588;SDS011;34369;51.174;6.738;2023-05-20T11:37:41;24.88;;;22.90;;
48588;SDS011;34369;51.174;6.738;2023-05-20T11:40:15;24.98;;;23.08;;
48588;SDS011;34369;51.174;6.738;2023-05-20T11:42:59;24.65;;;22.85;;
48588;SDS011;34369;51.174;6.738;2023-05-20T11:45:41;24.58;;;22.77;;
48588;SDS011;34369;51.174;6.738;2023-05-20T11:48:17;24.15;;;22.35;;
48588;SDS011;34369;51.174;6.738;2023-05-20T11:50:51;24.05;;;22.25;;
48588;SDS011;34369;51.174;6.738;2023-05-20T11:53:26;24.15;;;22.35;;
48588;SDS011;34369;51.174;6.738;2023-05-20T11:56:00;23.33;;;21.63;;
48588;SDS011;34369;51.174;6.738;2023-05-20T11:58:32;23.88;;;22.08;;
48588;SDS011;34369;51.174;6.738;2023-05-20T12:01:06;24.17;;;22.27;;
48588;SDS011;34369;51.174;6.738;2023-05-20T12:03:39;23.92;;;22.13;;
48588;SDS011;34369;51.174;6.738;2023-05-20T12:06:11;23.75;;;21.85;;
48588;SDS011;34369;51.174;6.738;2023-05-20T12:08:47;24.03;;;22.13;;
48588;SDS011;34369;51.174;6.738;2023-05-20T12:11:20;23.17;;;21.38;;
48588;SDS011;34369;51.174;6.738;2023-05-20T12:13:53;23.58;;;21.75;;
48588;SDS011;34369;51.174;6.738;2023-05-20T12:16:29;23.73;;;21.85;;
48588;SDS011;34369;51.174;6.738;2023-05-20T12:19:02;23.08;;;21.38;;
48588;SDS011;34369;51.174;6.738;2023-05-20T12:21:37;24.20;;;22.35;;
48588;SDS011;34369;51.174;6.738;2023-05-20T12:24:09;23.23;;;21.45;;
48588;SDS011;34369;51.174;6.738;2023-05-20T12:26:42;23.92;;;22.13;;
48588;SDS011;34369;51.174;6.738;2023-05-20T12:29:16;24.25;;;22.45;;
48588;SDS011;34369;51.174;6.738;2023-05-20T12:31:51;23.65;;;21.85;;
48588;SDS011;34369;51.174;6.738;2023-05-20T12:34:23;22.60;;;20.90;;
48588;SDS011;34369;51.174;6.738;2023-05-20T12:36:56;24.02;;;22.23;;
48588;SDS011;34369;51.174;6.738;2023-05-20T12:39:28;24.17;;;22.20;;
48588;SDS011;34369;51.174;6.738;2023-05-20T12:42:02;23.15;;;21.45;;
48588;SDS011;34369;51.174;6.738;2023-05-20T12:44:36;23.92;;;22.13;;
48588;SDS011;34369;51.174;6.738;2023-05-20T12:47:10;23.10;;;21.35;;
48588;SDS011;34369;51.174;6.738;2023-05-20T12:49:43;23.85;;;22.05;;
48588;SDS011;34369;51.174;6.738;2023-05-20T12:52:27;24.25;;;22.35;;
48588;SDS011;34369;51.174;6.738;2023-05-20T12:55:15;23.00;;;21.30;;
48588;SDS011;34369;51.174;6.738;2023-05-20T12:57:50;23.33;;;21.60;;
48588;SDS011;34369;51.174;6.738;2023-05-20T13:00:32;23.85;;;22.05;;
48588;SDS011;34369;51.174;6.738;2023-05-20T13:03:15;23.60;;;21.70;;
48588;SDS011;34369;51.174;6.738;2023-05-20T13:05:57;23.55;;;21.75;;
48588;SDS011;34369;51.174;6.738;2023-05-20T13:08:58;23.33;;;21.55;;
48588;SDS011;34369;51.174;6.738;2023-05-20T13:11:34;22.63;;;20.92;;
48588;SDS011;34369;51.174;6.738;2023-05-20T13:14:17;23.95;;;21.90;;
48588;SDS011;34369;51.174;6.738;2023-05-20T13:17:32;23.42;;;21.63;;
48588;SDS011;34369;51.174;6.738;2023-05-20T13:20:07;23.88;;;22.08;;
48588;SDS011;34369;51.174;6.738;2023-05-20T13:22:42;23.45;;;21.70;;
48588;SDS011;34369;51.174;6.738;2023-05-20T13:25:17;23.17;;;21.48;;
48588;SDS011;34369;51.174;6.738;2023-05-20T13:27:55;22.70;;;20.95;;
48588;SDS011;34369;51.174;6.738;2023-05-20T13:30:30;22.52;;;20.83;;
48588;SDS011;34369;51.174;6.738;2023-05-20T13:33:06;23.13;;;21.33;;
48588;SDS011;34369;51.174;6.738;2023-05-20T13:35:43;22.73;;;21.00;;
48588;SDS011;34369;51.174;6.738;2023-05-20T13:38:18;23.02;;;21.33;;
48588;SDS011;34369;51.174;6.738;2023-05-20T13:40:52;23.05;;;21.25;;
48588;SDS011;34369;51.174;6.738;2023-05-20T13:43:30;22.75;;;20.95;;
48588;SDS011;34369;51.174;6.738;2023-05-20T13:46:05;22.63;;;20.92;;
48588;SDS011;34369;51.174;6.738;2023-05-20T13:48:43;23.52;;;21.77;;
48588;SDS011;34369;51.174;6.738;2023-05-20T13:51:31;23.65;;;21.70;;
48588;SDS011;34369;51.174;6.738;2023-05-20T13:54:41;23.63;;;21.77;;
48588;SDS011;34369;51.174;6.738;2023-05-20T13:57:50;22.40;;;20.63;;
48588;SDS011;34369;51.174;6.738;2023-05-20T14:00:29;22.67;;;20.88;;
48588;SDS011;34369;51.174;6.738;2023-05-20T14:03:07;22.30;;;20.60;;
48588;SDS011;34369;51.174;6.738;2023-05-20T14:05:56;22.77;;;21.08;;
48588;SDS011;34369;51.174;6.738;2023-05-20T14:08:55;22.70;;;21.00;;
48588;SDS011;34369;51.174;6.738;2023-05-20T14:11:33;22.85;;;21.05;;
48588;SDS011;34369;51.174;6.738;2023-05-20T14:14:26;22.52;;;20.63;;
48588;SDS011;34369;51.174;6.738;2023-05-20T14:17:09;22.95;;;21.05;;
48588;SDS011;34369;51.174;6.738;2023-05-20T14:19:47;22.55;;;20.75;;
48588;SDS011;34369;51.174;6.738;2023-05-20T14:22:24;23.30;;;21.27;;
48588;SDS011;34369;51.174;6.738;2023-05-20T14:24:59;22.42;;;20.73;;
48588;SDS011;34369;51.174;6.738;2023-05-20T14:27:32;22.83;;;21.08;;
48588;SDS011;34369;51.174;6.738;2023-05-20T14:30:07;23.90;;;21.77;;
48588;SDS011;34369;51.174;6.738;2023-05-20T14:32:43;23.97;;;22.17;;
48588;SDS011;34369;51.174;6.738;2023-05-20T14:35:22;23.05;;;21.35;;
48588;SDS011;34369;51.174;6.738;2023-05-20T14:37:59;23.42;;;21.73;;
48588;SDS011;34369;51.174;6.738;2023-05-20T14:40:36;23.77;;;21.88;;
48588;SDS011;34369;51.174;6.738;2023-05-20T14:43:10;23.85;;;21.70;;
48588;SDS011;34369;51.174;6.738;2023-05-20T14:45:43;23.40;;;21.70;;
48588;SDS011;34369;51.174;6.738;2023-05-20T14:48:22;23.77;;;21.88;;
48588;SDS011;34369;51.174;6.738;2023-05-20T14:50:58;23.83;;;22.05;;
48588;SDS011;34369;51.174;6.738;2023-05-20T14:53:31;23.63;;;21.83;;
48588;SDS011;34369;51.174;6.738;2023-05-20T14:56:07;24.15;;;21.90;;
48588;SDS011;34369;51.174;6.738;2023-05-20T14:58:44;24.30;;;22.20;;
48588;SDS011;34369;51.174;6.738;2023-05-20T15:01:22;24.00;;;22.20;;
48588;SDS011;34369;51.174;6.738;2023-05-20T15:03:58;23.52;;;21.73;;
48588;SDS011;34369;51.174;6.738;2023-05-20T15:06:36;23.77;;;21.90;;
48588;SDS011;34369;51.174;6.738;2023-05-20T15:09:14;23.40;;;21.40;;
48588;SDS011;34369;51.174;6.738;2023-05-20T15:11:49;23.42;;;21.73;;